sensor_id;sensor_type;location;lat;lon;timestamp;temperature;humidity
31619;DHT22;18230;51.502;7.108;2023-06-26T00:01:13;26.20;99.90
31619;DHT22;18230;51.502;7.108;2023-06-26T00:06:14;26.20;99.90
31619;DHT22;18230;51.502;7.108;2023-06-26T00:11:14;26.10;99.90
31619;DHT22;18230;51.502;7.108;2023-06-26T00:16:15;26.00;99.90
31619;DHT22;18230;51.502;7.108;2023-06-26T00:21:16;26.00;99.90
31619;DHT22;18230;51.502;7.108;2023-06-26T00:26:16;25.90;99.90
31619;DHT22;18230;51.502;7.108;2023-06-26T00:31:17;25.90;99.90
31619;DHT22;18230;51.502;7.108;2023-06-26T00:36:18;25.90;99.90
31619;DHT22;18230;51.502;7.108;2023-06-26T00:41:19;25.80;99.90
31619;DHT22;18230;51.502;7.108;2023-06-26T00:46:19;25.80;99.90
31619;DHT22;18230;51.502;7.108;2023-06-26T00:51:20;25.70;99.90
31619;DHT22;18230;51.502;7.108;2023-06-26T00:56:22;25.60;99.90
31619;DHT22;18230;51.502;7.108;2023-06-26T01:01:22;25.40;99.90
31619;DHT22;18230;51.502;7.108;2023-06-26T01:06:28;25.50;99.90
31619;DHT22;18230;51.502;7.108;2023-06-26T01:11:31;25.40;99.90
31619;DHT22;18230;51.502;7.108;2023-06-26T01:16:32;25.30;99.90
31619;DHT22;18230;51.502;7.108;2023-06-26T01:21:35;25.30;99.90
31619;DHT22;18230;51.502;7.108;2023-06-26T01:26:40;25.30;99.90
31619;DHT22;18230;51.502;7.108;2023-06-26T01:31:43;25.20;99.90
31619;DHT22;18230;51.502;7.108;2023-06-26T01:36:46;25.10;99.90
31619;DHT22;18230;51.502;7.108;2023-06-26T01:41:47;24.90;99.90
31619;DHT22;18230;51.502;7.108;2023-06-26T01:46:52;24.90;99.90
31619;DHT22;18230;51.502;7.108;2023-06-26T01:52:30;24.80;99.90
31619;DHT22;18230;51.502;7.108;2023-06-26T01:57:48;24.80;99.90
31619;DHT22;18230;51.502;7.108;2023-06-26T02:02:52;24.70;99.90
31619;DHT22;18230;51.502;7.108;2023-06-26T02:07:53;24.70;99.90
31619;DHT22;18230;51.502;7.108;2023-06-26T02:12:54;24.70;99.90
31619;DHT22;18230;51.502;7.108;2023-06-26T02:17:54;24.60;99.90
31619;DHT22;18230;51.502;7.108;2023-06-26T02:22:55;24.50;99.90
31619;DHT22;18230;51.502;7.108;2023-06-26T02:27:56;24.50;99.90
31619;DHT22;18230;51.502;7.108;2023-06-26T02:32:56;24.60;99.90
31619;DHT22;18230;51.502;7.108;2023-06-26T02:37:57;24.50;99.90
31619;DHT22;18230;51.502;7.108;2023-06-26T02:42:58;24.50;99.90
31619;DHT22;18230;51.502;7.108;2023-06-26T02:47:58;24.40;99.90
31619;DHT22;18230;51.502;7.108;2023-06-26T02:52:59;24.40;99.90
31619;DHT22;18230;51.502;7.108;2023-06-26T02:58:00;24.40;99.90
31619;DHT22;18230;51.502;7.108;2023-06-26T03:03:01;24.30;99.90
31619;DHT22;18230;51.502;7.108;2023-06-26T03:08:03;24.20;99.90
31619;DHT22;18230;51.502;7.108;2023-06-26T03:13:03;24.10;99.90
31619;DHT22;18230;51.502;7.108;2023-06-26T03:18:04;24.10;99.90
31619;DHT22;18230;51.502;7.108;2023-06-26T03:23:05;24.10;99.90
31619;DHT22;18230;51.502;7.108;2023-06-26T03:28:06;24.10;99.90
31619;DHT22;18230;51.502;7.108;2023-06-26T03:33:06;24.00;99.90
31619;DHT22;18230;51.502;7.108;2023-06-26T03:38:07;24.00;99.90
31619;DHT22;18230;51.502;7.108;2023-06-26T03:43:08;24.00;99.90
31619;DHT22;18230;51.502;7.108;2023-06-26T03:48:08;24.00;99.90
31619;DHT22;18230;51.502;7.108;2023-06-26T03:53:09;24.00;99.90
31619;DHT22;18230;51.502;7.108;2023-06-26T03:58:10;23.90;99.90
31619;DHT22;18230;51.502;7.108;2023-06-26T04:03:11;23.90;99.90
31619;DHT22;18230;51.502;7.108;2023-06-26T04:08:11;23.90;99.90
31619;DHT22;18230;51.502;7.108;2023-06-26T04:13:12;23.90;99.90
31619;DHT22;18230;51.502;7.108;2023-06-26T04:18:13;23.90;99.90
31619;DHT22;18230;51.502;7.108;2023-06-26T04:23:14;24.30;99.90
31619;DHT22;18230;51.502;7.108;2023-06-26T04:28:15;24.10;99.90
31619;DHT22;18230;51.502;7.108;2023-06-26T04:33:16;24.00;99.90
31619;DHT22;18230;51.502;7.108;2023-06-26T04:38:17;23.90;99.90
31619;DHT22;18230;51.502;7.108;2023-06-26T04:43:17;24.00;99.90
31619;DHT22;18230;51.502;7.108;2023-06-26T04:48:18;23.90;99.90
31619;DHT22;18230;51.502;7.108;2023-06-26T04:53:19;23.80;99.90
31619;DHT22;18230;51.502;7.108;2023-06-26T04:58:20;23.80;99.90
31619;DHT22;18230;51.502;7.108;2023-06-26T05:03:22;23.70;99.90
31619;DHT22;18230;51.502;7.108;2023-06-26T05:08:24;23.80;99.90
31619;DHT22;18230;51.502;7.108;2023-06-26T05:13:26;23.80;99.90
31619;DHT22;18230;51.502;7.108;2023-06-26T05:18:27;23.80;99.90
31619;DHT22;18230;51.502;7.108;2023-06-26T05:23:31;23.80;99.90
31619;DHT22;18230;51.502;7.108;2023-06-26T05:28:32;23.80;99.90
31619;DHT22;18230;51.502;7.108;2023-06-26T05:33:35;23.70;99.90
31619;DHT22;18230;51.502;7.108;2023-06-26T05:38:37;24.00;99.90
31619;DHT22;18230;51.502;7.108;2023-06-26T05:43:38;24.10;99.90
31619;DHT22;18230;51.502;7.108;2023-06-26T05:48:39;24.20;99.90
31619;DHT22;18230;51.502;7.108;2023-06-26T05:53:40;24.30;99.90
31619;DHT22;18230;51.502;7.108;2023-06-26T05:58:41;24.00;99.90
31619;DHT22;18230;51.502;7.108;2023-06-26T06:03:43;23.50;99.90
31619;DHT22;18230;51.502;7.108;2023-06-26T06:08:43;23.50;99.90
31619;DHT22;18230;51.502;7.108;2023-06-26T06:13:44;23.90;99.90
31619;DHT22;18230;51.502;7.108;2023-06-26T06:18:45;24.40;99.90
31619;DHT22;18230;51.502;7.108;2023-06-26T06:23:47;24.20;99.90
31619;DHT22;18230;51.502;7.108;2023-06-26T06:28:48;24.30;99.90
31619;DHT22;18230;51.502;7.108;2023-06-26T06:33:49;24.00;99.90
31619;DHT22;18230;51.502;7.108;2023-06-26T06:38:49;23.90;99.90
31619;DHT22;18230;51.502;7.108;2023-06-26T06:43:50;23.60;99.90
31619;DHT22;18230;51.502;7.108;2023-06-26T06:48:51;23.40;99.90
31619;DHT22;18230;51.502;7.108;2023-06-26T06:53:52;23.00;99.90
31619;DHT22;18230;51.502;7.108;2023-06-26T06:58:52;23.20;99.90
31619;DHT22;18230;51.502;7.108;2023-06-26T07:03:53;23.30;99.90
31619;DHT22;18230;51.502;7.108;2023-06-26T07:08:54;23.60;99.90
31619;DHT22;18230;51.502;7.108;2023-06-26T07:13:55;23.80;99.90
31619;DHT22;18230;51.502;7.108;2023-06-26T07:18:56;23.70;99.90
31619;DHT22;18230;51.502;7.108;2023-06-26T07:23:57;23.90;99.90
31619;DHT22;18230;51.502;7.108;2023-06-26T07:28:58;23.80;99.90
31619;DHT22;18230;51.502;7.108;2023-06-26T07:33:59;23.90;99.90
31619;DHT22;18230;51.502;7.108;2023-06-26T07:39:00;23.90;99.90
31619;DHT22;18230;51.502;7.108;2023-06-26T07:44:01;24.10;99.90
31619;DHT22;18230;51.502;7.108;2023-06-26T07:49:01;24.40;99.90
31619;DHT22;18230;51.502;7.108;2023-06-26T07:54:02;24.40;99.90
31619;DHT22;18230;51.502;7.108;2023-06-26T07:59:03;24.30;99.90
31619;DHT22;18230;51.502;7.108;2023-06-26T08:04:04;24.40;99.90
31619;DHT22;18230;51.502;7.108;2023-06-26T08:09:07;24.40;99.90
31619;DHT22;18230;51.502;7.108;2023-06-26T08:14:08;24.60;99.90
31619;DHT22;18230;51.502;7.108;2023-06-26T08:19:09;24.80;99.90
31619;DHT22;18230;51.502;7.108;2023-06-26T08:24:11;24.50;99.90
31619;DHT22;18230;51.502;7.108;2023-06-26T08:29:13;24.80;99.90
31619;DHT22;18230;51.502;7.108;2023-06-26T08:34:14;24.70;99.90
31619;DHT22;18230;51.502;7.108;2023-06-26T08:39:14;24.70;99.90
31619;DHT22;18230;51.502;7.108;2023-06-26T08:44:15;24.90;99.90
31619;DHT22;18230;51.502;7.108;2023-06-26T08:49:21;24.70;99.90
31619;DHT22;18230;51.502;7.108;2023-06-26T08:54:34;24.70;99.90
31619;DHT22;18230;51.502;7.108;2023-06-26T08:59:37;24.90;99.90
31619;DHT22;18230;51.502;7.108;2023-06-26T09:04:39;24.70;99.90
31619;DHT22;18230;51.502;7.108;2023-06-26T09:09:40;24.60;99.90
31619;DHT22;18230;51.502;7.108;2023-06-26T09:14:41;24.60;99.90
31619;DHT22;18230;51.502;7.108;2023-06-26T09:19:45;24.90;99.90
31619;DHT22;18230;51.502;7.108;2023-06-26T09:24:47;24.90;99.90
31619;DHT22;18230;51.502;7.108;2023-06-26T09:29:48;24.70;99.90
31619;DHT22;18230;51.502;7.108;2023-06-26T09:34:52;24.60;99.90
31619;DHT22;18230;51.502;7.108;2023-06-26T09:39:53;24.60;99.90
31619;DHT22;18230;51.502;7.108;2023-06-26T09:44:54;24.90;99.90
31619;DHT22;18230;51.502;7.108;2023-06-26T09:49:55;25.40;99.90
31619;DHT22;18230;51.502;7.108;2023-06-26T09:55:09;25.30;99.90
31619;DHT22;18230;51.502;7.108;2023-06-26T10:00:10;25.50;99.90
31619;DHT22;18230;51.502;7.108;2023-06-26T10:05:12;25.50;99.90
31619;DHT22;18230;51.502;7.108;2023-06-26T10:10:14;25.60;99.90
31619;DHT22;18230;51.502;7.108;2023-06-26T10:15:15;25.50;99.90
31619;DHT22;18230;51.502;7.108;2023-06-26T10:20:17;25.40;99.90
31619;DHT22;18230;51.502;7.108;2023-06-26T10:25:19;25.20;99.90
31619;DHT22;18230;51.502;7.108;2023-06-26T10:30:24;25.10;99.90
31619;DHT22;18230;51.502;7.108;2023-06-26T10:35:27;24.90;99.90
31619;DHT22;18230;51.502;7.108;2023-06-26T10:40:33;25.10;99.90
31619;DHT22;18230;51.502;7.108;2023-06-26T10:45:45;25.50;99.90
31619;DHT22;18230;51.502;7.108;2023-06-26T10:50:49;25.70;99.90
31619;DHT22;18230;51.502;7.108;2023-06-26T10:56:01;26.00;99.90
31619;DHT22;18230;51.502;7.108;2023-06-26T11:06:14;26.00;99.90
31619;DHT22;18230;51.502;7.108;2023-06-26T11:11:16;25.90;99.90
31619;DHT22;18230;51.502;7.108;2023-06-26T11:16:17;25.50;99.90
31619;DHT22;18230;51.502;7.108;2023-06-26T11:21:21;25.70;99.90
31619;DHT22;18230;51.502;7.108;2023-06-26T11:26:23;25.70;99.90
31619;DHT22;18230;51.502;7.108;2023-06-26T11:31:28;25.80;99.90
31619;DHT22;18230;51.502;7.108;2023-06-26T11:36:32;25.70;99.90
31619;DHT22;18230;51.502;7.108;2023-06-26T11:41:34;25.50;99.90
31619;DHT22;18230;51.502;7.108;2023-06-26T11:46:36;25.40;99.90
31619;DHT22;18230;51.502;7.108;2023-06-26T11:51:37;25.50;99.90
31619;DHT22;18230;51.502;7.108;2023-06-26T11:56:37;25.50;99.90
31619;DHT22;18230;51.502;7.108;2023-06-26T12:01:42;25.20;99.90
31619;DHT22;18230;51.502;7.108;2023-06-26T12:06:48;25.20;99.90
31619;DHT22;18230;51.502;7.108;2023-06-26T12:11:53;25.60;99.90
31619;DHT22;18230;51.502;7.108;2023-06-26T12:16:55;25.60;99.90
31619;DHT22;18230;51.502;7.108;2023-06-26T12:21:56;25.90;99.80
31619;DHT22;18230;51.502;7.108;2023-06-26T12:26:57;26.00;98.20
31619;DHT22;18230;51.502;7.108;2023-06-26T12:31:57;26.10;96.20
31619;DHT22;18230;51.502;7.108;2023-06-26T12:37:07;26.00;95.60
31619;DHT22;18230;51.502;7.108;2023-06-26T12:42:08;25.80;92.60
31619;DHT22;18230;51.502;7.108;2023-06-26T12:47:09;25.40;92.00
31619;DHT22;18230;51.502;7.108;2023-06-26T12:52:15;25.50;90.10
31619;DHT22;18230;51.502;7.108;2023-06-26T12:57:15;25.40;91.20
31619;DHT22;18230;51.502;7.108;2023-06-26T13:02:16;25.40;92.10
31619;DHT22;18230;51.502;7.108;2023-06-26T13:07:17;25.60;91.90
31619;DHT22;18230;51.502;7.108;2023-06-26T13:12:18;25.60;91.70
31619;DHT22;18230;51.502;7.108;2023-06-26T13:17:19;25.50;90.90
31619;DHT22;18230;51.502;7.108;2023-06-26T13:22:20;25.50;90.00
31619;DHT22;18230;51.502;7.108;2023-06-26T13:27:21;25.60;88.00
31619;DHT22;18230;51.502;7.108;2023-06-26T13:32:22;25.80;86.50
31619;DHT22;18230;51.502;7.108;2023-06-26T13:37:22;26.00;85.80
31619;DHT22;18230;51.502;7.108;2023-06-26T13:42:23;25.80;81.80
31619;DHT22;18230;51.502;7.108;2023-06-26T13:47:24;25.90;81.70
31619;DHT22;18230;51.502;7.108;2023-06-26T13:52:25;26.10;77.50
31619;DHT22;18230;51.502;7.108;2023-06-26T13:57:25;26.40;75.30
31619;DHT22;18230;51.502;7.108;2023-06-26T14:02:28;26.30;74.60
31619;DHT22;18230;51.502;7.108;2023-06-26T14:07:29;25.90;74.20
31619;DHT22;18230;51.502;7.108;2023-06-26T14:12:30;26.10;75.40
31619;DHT22;18230;51.502;7.108;2023-06-26T14:17:31;26.30;73.80
31619;DHT22;18230;51.502;7.108;2023-06-26T14:22:31;26.30;71.20
31619;DHT22;18230;51.502;7.108;2023-06-26T14:27:33;26.60;69.30
31619;DHT22;18230;51.502;7.108;2023-06-26T14:32:34;26.70;68.50
31619;DHT22;18230;51.502;7.108;2023-06-26T14:37:36;26.90;66.90
31619;DHT22;18230;51.502;7.108;2023-06-26T14:42:37;26.30;68.90
31619;DHT22;18230;51.502;7.108;2023-06-26T14:47:38;26.60;69.50
31619;DHT22;18230;51.502;7.108;2023-06-26T14:52:38;27.00;70.10
31619;DHT22;18230;51.502;7.108;2023-06-26T14:57:39;26.90;67.60
31619;DHT22;18230;51.502;7.108;2023-06-26T15:02:40;26.60;65.30
31619;DHT22;18230;51.502;7.108;2023-06-26T15:07:41;26.60;67.70
31619;DHT22;18230;51.502;7.108;2023-06-26T15:12:42;26.60;68.00
31619;DHT22;18230;51.502;7.108;2023-06-26T15:17:44;26.70;71.30
31619;DHT22;18230;51.502;7.108;2023-06-26T15:22:44;27.00;71.50
31619;DHT22;18230;51.502;7.108;2023-06-26T15:27:45;26.90;70.20
31619;DHT22;18230;51.502;7.108;2023-06-26T15:32:46;27.20;72.50
31619;DHT22;18230;51.502;7.108;2023-06-26T15:37:47;26.80;73.60
31619;DHT22;18230;51.502;7.108;2023-06-26T15:42:51;26.70;75.90
31619;DHT22;18230;51.502;7.108;2023-06-26T15:47:53;26.30;76.10
31619;DHT22;18230;51.502;7.108;2023-06-26T15:52:54;25.80;75.10
31619;DHT22;18230;51.502;7.108;2023-06-26T15:57:54;25.60;77.50
31619;DHT22;18230;51.502;7.108;2023-06-26T16:02:55;25.50;78.30
31619;DHT22;18230;51.502;7.108;2023-06-26T16:07:56;25.30;78.30
31619;DHT22;18230;51.502;7.108;2023-06-26T16:12:57;25.00;80.20
31619;DHT22;18230;51.502;7.108;2023-06-26T16:17:57;25.10;81.40
31619;DHT22;18230;51.502;7.108;2023-06-26T16:22:58;25.10;79.50
31619;DHT22;18230;51.502;7.108;2023-06-26T16:27:59;25.20;78.20
31619;DHT22;18230;51.502;7.108;2023-06-26T16:33:00;25.20;78.50
31619;DHT22;18230;51.502;7.108;2023-06-26T16:38:01;25.10;78.80
31619;DHT22;18230;51.502;7.108;2023-06-26T16:43:02;24.80;79.50
31619;DHT22;18230;51.502;7.108;2023-06-26T16:48:04;24.40;81.30
31619;DHT22;18230;51.502;7.108;2023-06-26T16:53:05;24.30;81.10
31619;DHT22;18230;51.502;7.108;2023-06-26T16:58:05;24.30;79.90
31619;DHT22;18230;51.502;7.108;2023-06-26T17:03:06;24.10;80.00
31619;DHT22;18230;51.502;7.108;2023-06-26T17:08:07;23.90;80.20
31619;DHT22;18230;51.502;7.108;2023-06-26T17:13:09;23.80;81.00
31619;DHT22;18230;51.502;7.108;2023-06-26T17:18:10;23.70;82.00
31619;DHT22;18230;51.502;7.108;2023-06-26T17:23:10;23.70;81.20
31619;DHT22;18230;51.502;7.108;2023-06-26T17:28:11;23.70;81.10
31619;DHT22;18230;51.502;7.108;2023-06-26T17:33:12;23.90;81.40
31619;DHT22;18230;51.502;7.108;2023-06-26T17:38:13;23.90;82.40
31619;DHT22;18230;51.502;7.108;2023-06-26T17:43:13;24.00;84.00
31619;DHT22;18230;51.502;7.108;2023-06-26T17:48:14;24.40;83.00
31619;DHT22;18230;51.502;7.108;2023-06-26T17:53:15;24.30;83.00
31619;DHT22;18230;51.502;7.108;2023-06-26T17:58:16;24.20;83.30
31619;DHT22;18230;51.502;7.108;2023-06-26T18:03:17;24.10;83.40
31619;DHT22;18230;51.502;7.108;2023-06-26T18:08:18;24.10;83.90
31619;DHT22;18230;51.502;7.108;2023-06-26T18:13:19;24.30;82.40
31619;DHT22;18230;51.502;7.108;2023-06-26T18:18:19;24.80;80.90
31619;DHT22;18230;51.502;7.108;2023-06-26T18:23:20;25.10;79.70
31619;DHT22;18230;51.502;7.108;2023-06-26T18:28:21;25.70;78.80
31619;DHT22;18230;51.502;7.108;2023-06-26T18:33:21;25.80;74.20
31619;DHT22;18230;51.502;7.108;2023-06-26T18:38:22;25.90;73.90
31619;DHT22;18230;51.502;7.108;2023-06-26T18:43:23;25.90;73.40
31619;DHT22;18230;51.502;7.108;2023-06-26T18:48:24;25.90;73.80
31619;DHT22;18230;51.502;7.108;2023-06-26T18:53:25;25.80;73.60
31619;DHT22;18230;51.502;7.108;2023-06-26T18:58:26;25.90;73.40
31619;DHT22;18230;51.502;7.108;2023-06-26T19:03:26;25.90;72.60
31619;DHT22;18230;51.502;7.108;2023-06-26T19:08:27;25.70;72.10
31619;DHT22;18230;51.502;7.108;2023-06-26T19:13:28;25.50;71.30
31619;DHT22;18230;51.502;7.108;2023-06-26T19:18:30;24.90;73.20
31619;DHT22;18230;51.502;7.108;2023-06-26T19:23:32;24.40;76.20
31619;DHT22;18230;51.502;7.108;2023-06-26T19:28:33;24.00;77.20
31619;DHT22;18230;51.502;7.108;2023-06-26T19:33:34;23.60;78.70
31619;DHT22;18230;51.502;7.108;2023-06-26T19:38:35;23.40;80.40
31619;DHT22;18230;51.502;7.108;2023-06-26T19:43:36;23.20;82.00
31619;DHT22;18230;51.502;7.108;2023-06-26T19:48:36;23.00;83.60
31619;DHT22;18230;51.502;7.108;2023-06-26T19:53:37;22.90;85.30
31619;DHT22;18230;51.502;7.108;2023-06-26T19:58:38;22.80;86.60
31619;DHT22;18230;51.502;7.108;2023-06-26T20:03:39;22.60;88.40
31619;DHT22;18230;51.502;7.108;2023-06-26T20:08:40;22.50;89.60
31619;DHT22;18230;51.502;7.108;2023-06-26T20:13:40;22.40;90.40
31619;DHT22;18230;51.502;7.108;2023-06-26T20:18:41;22.30;91.20
31619;DHT22;18230;51.502;7.108;2023-06-26T20:23:42;22.10;91.80
31619;DHT22;18230;51.502;7.108;2023-06-26T20:28:43;22.00;92.40
31619;DHT22;18230;51.502;7.108;2023-06-26T20:33:43;21.90;93.20
31619;DHT22;18230;51.502;7.108;2023-06-26T20:38:44;21.80;94.00
31619;DHT22;18230;51.502;7.108;2023-06-26T20:43:45;21.70;94.60
31619;DHT22;18230;51.502;7.108;2023-06-26T20:48:46;21.60;95.50
31619;DHT22;18230;51.502;7.108;2023-06-26T20:53:47;21.40;96.50
31619;DHT22;18230;51.502;7.108;2023-06-26T20:58:48;21.30;97.60
31619;DHT22;18230;51.502;7.108;2023-06-26T21:03:48;21.10;98.70
31619;DHT22;18230;51.502;7.108;2023-06-26T21:08:49;21.00;99.80
31619;DHT22;18230;51.502;7.108;2023-06-26T21:13:50;21.00;99.90
31619;DHT22;18230;51.502;7.108;2023-06-26T21:18:51;20.90;99.90
31619;DHT22;18230;51.502;7.108;2023-06-26T21:23:52;20.80;99.90
31619;DHT22;18230;51.502;7.108;2023-06-26T21:28:52;20.70;99.90
31619;DHT22;18230;51.502;7.108;2023-06-26T21:33:53;20.70;99.90
31619;DHT22;18230;51.502;7.108;2023-06-26T21:38:54;20.60;99.90
31619;DHT22;18230;51.502;7.108;2023-06-26T21:43:54;20.50;99.90
31619;DHT22;18230;51.502;7.108;2023-06-26T21:48:55;20.50;99.90
31619;DHT22;18230;51.502;7.108;2023-06-26T21:53:56;20.40;99.90
31619;DHT22;18230;51.502;7.108;2023-06-26T21:58:58;20.30;99.90
31619;DHT22;18230;51.502;7.108;2023-06-26T22:03:58;20.30;99.90
31619;DHT22;18230;51.502;7.108;2023-06-26T22:08:59;20.20;99.90
31619;DHT22;18230;51.502;7.108;2023-06-26T22:14:00;20.10;99.90
31619;DHT22;18230;51.502;7.108;2023-06-26T22:19:01;20.10;99.90
31619;DHT22;18230;51.502;7.108;2023-06-26T22:24:01;20.00;99.90
31619;DHT22;18230;51.502;7.108;2023-06-26T22:29:02;19.90;99.90
31619;DHT22;18230;51.502;7.108;2023-06-26T22:34:03;19.80;99.90
31619;DHT22;18230;51.502;7.108;2023-06-26T22:39:04;19.80;99.90
31619;DHT22;18230;51.502;7.108;2023-06-26T22:44:05;19.70;99.90
31619;DHT22;18230;51.502;7.108;2023-06-26T22:49:06;19.60;99.90
31619;DHT22;18230;51.502;7.108;2023-06-26T22:54:07;19.50;99.90
31619;DHT22;18230;51.502;7.108;2023-06-26T22:59:08;19.50;99.90
31619;DHT22;18230;51.502;7.108;2023-06-26T23:04:09;19.40;99.90
31619;DHT22;18230;51.502;7.108;2023-06-26T23:09:10;19.30;99.90
31619;DHT22;18230;51.502;7.108;2023-06-26T23:14:11;19.30;99.90
31619;DHT22;18230;51.502;7.108;2023-06-26T23:19:12;19.20;99.90
31619;DHT22;18230;51.502;7.108;2023-06-26T23:24:12;19.10;99.90
31619;DHT22;18230;51.502;7.108;2023-06-26T23:29:13;19.00;99.90
31619;DHT22;18230;51.502;7.108;2023-06-26T23:34:16;18.90;99.90
31619;DHT22;18230;51.502;7.108;2023-06-26T23:39:20;18.90;99.90
31619;DHT22;18230;51.502;7.108;2023-06-26T23:44:21;18.90;99.90
31619;DHT22;18230;51.502;7.108;2023-06-26T23:49:22;18.80;99.90
31619;DHT22;18230;51.502;7.108;2023-06-26T23:54:22;18.60;99.90
31619;DHT22;18230;51.502;7.108;2023-06-26T23:59:23;18.60;99.90
